メインページ
METAR-TAF:

METAR-TAF

空港 :

サルガド・フィーリョ国際空港

ポルト・アレグレ, リオグランデ・ド・スル州, ブラジル

緯度: 30-00S, 経度: 051-11W, 海抜: 3m

現時点の気象観測

当レポートは34分前の23:00(UTC)に作成
の風 5kt、南/南東から南西の間で変化する
気温 20°C
湿度 94%
気圧 1016 hPa
視程10km以上
高度900ftの雲はほとんどない
高度10000ftの雲は散在している

METAR: SBPA 242300Z 18005KT 150V220 9999 FEW009 SCT100 20/19 Q1016

時間: 20:34 (23:34 UTC)

予報

当レポートは8時間34分前の15:00(UTC)に作成
予報は24日の 18時(UTC)から 25日の 18時(UTC)まで有効
東/南東の風 8kt
視程10km以上
高度1200ftの雲は散在している
高度3000ftの千切れ雲あり
確率 40%
24日の 18時(UTC)から 24日の 20時(UTC)まで
視程: 8000m
高度2000ftの千切れ雲あり
25日の 00時(UTC)から 25日の 02時(UTC)まで徐々に
視程: 6000m
高度800ftの千切れ雲あり
確率 40%
間 2から UTC
視程: 3000m
高度400ftの千切れ雲あり
散在霧, 靄
25日の 11時(UTC)から 25日の 13時(UTC)まで徐々に
南東の風 12kt
視程: 8000m
高度1200ftの千切れ雲あり
高度2000ftの千切れ雲あり
高度3000ftの雲はほとんどない, 積乱雲.
激しい雷雨, 雨

TAF: SBPA 241500Z 2418/2518 12008KT 9999 SCT012 BKN030 TX22/2418Z TN18 /2508Z PROB40 2418/2420 8000 RA BKN020 BECMG 2500/2502 6000 BKN008 PROB40 2 506/2511 3000 BCFG BR BKN004 BECMG 2511/2513 13012KT 8000 TSRA BKN012 BKN020 FEW030CB RMK PDJ

4,000以上の空港の気象観測と天気予報(METAR報とTAF報)

利用可能な観測所は地図上に黄色い丸と赤い丸で示す。

丸の上にカーソルを重ねると観測所名を参照できる。

次にクリックすると気象観測と天気予報を参照できる。

マップの切り替え:黒色「×」印の緑ボタンをクリックして拡大、「-」印の緑ボタンをクリックして縮小、緑色の三角印をクリックして隣りの地図に切り替え


METAR-TAF: